Time;durP1;ratioP1;P1;durP2;ratioP2;P2;SDS_P1;SDS_P2;PMS_P1;PMS_P2;Temp;Humidity;BMP_temperature;BMP_pressure;BME280_temperature;BME280_humidity;BME280_pressure;Samples;Min_cycle;Max_cycle;Signal;HPM_P1;HPM_P2
2021/04/28 00:01:39;;;;;;;8.43;4.30;;;;;;;4.55;51.31;100392.59;3573493;40;20065;-51
2021/04/28 00:04:07;;;;;;;7.90;4.25;;;;;;;4.55;51.02;100386.66;3578618;40;20049;-51
2021/04/28 00:06:34;;;;;;;7.28;4.65;;;;;;;4.46;51.22;100376.97;3578326;40;20095;-49
2021/04/28 00:09:02;;;;;;;6.90;4.57;;;;;;;4.42;51.03;100375.09;3571450;40;20061;-51
2021/04/28 00:11:29;;;;;;;9.05;4.72;;;;;;;4.44;51.26;100373.53;3573025;40;20065;-53
2021/04/28 00:13:55;;;;;;;6.70;4.60;;;;;;;4.36;51.33;100372.31;3573293;40;20069;-48
2021/04/28 00:16:22;;;;;;;8.27;4.72;;;;;;;4.10;51.85;100360.97;3573828;40;20096;-52
2021/04/28 00:18:49;;;;;;;6.70;4.63;;;;;;;4.13;52.36;100366.19;3573023;40;20053;-53
2021/04/28 00:21:16;;;;;;;8.23;5.10;;;;;;;4.03;53.54;100356.44;3573486;40;20064;-49
2021/04/28 00:23:44;;;;;;;9.13;5.20;;;;;;;3.91;53.60;100351.66;3572997;40;20129;-53
2021/04/28 00:26:15;;;;;;;8.02;4.65;;;;;;;4.31;52.53;100358.56;3572912;40;20320;-52
2021/04/28 00:28:43;;;;;;;8.23;4.85;;;;;;;4.22;52.17;100348.88;3572866;40;20053;-53
2021/04/28 00:31:10;;;;;;;8.35;4.32;;;;;;;4.14;52.37;100352.72;3572933;40;20053;-53
2021/04/28 00:33:37;;;;;;;8.48;4.72;;;;;;;3.81;52.86;100347.81;3573145;40;20076;-54
2021/04/28 00:36:04;;;;;;;7.35;4.13;;;;;;;4.24;52.53;100349.78;3572850;40;20521;-53
2021/04/28 00:38:31;;;;;;;6.82;4.43;;;;;;;4.00;53.02;100351.22;3572949;40;20093;-51
2021/04/28 00:40:58;;;;;;;8.05;4.72;;;;;;;3.88;53.76;100350.63;3572788;40;20445;-53
2021/04/28 00:43:25;;;;;;;5.45;4.40;;;;;;;3.72;53.27;100347.38;3573474;40;20609;-51
2021/04/28 00:45:51;;;;;;;6.32;4.80;;;;;;;3.76;53.97;100346.72;3573578;40;20064;-55
2021/04/28 00:48:18;;;;;;;6.30;4.97;;;;;;;3.89;53.79;100352.38;3574321;40;20065;-55
2021/04/28 00:50:47;;;;;;;9.25;5.32;;;;;;;3.74;54.25;100345.78;3574319;40;20088;-55
2021/04/28 00:53:16;;;;;;;11.88;5.63;;;;;;;3.62;54.84;100347.75;3573509;40;20529;-51
2021/04/28 00:55:44;;;;;;;8.35;4.80;;;;;;;4.09;53.85;100334.75;3573456;40;20372;-53
2021/04/28 00:58:11;;;;;;;8.98;5.40;;;;;;;4.01;54.40;100332.66;3573179;40;20628;-51
2021/04/28 01:00:40;;;;;;;8.85;5.00;;;;;;;3.47;56.60;100327.63;3573470;40;20061;-52
2021/04/28 01:03:07;;;;;;;6.30;4.55;;;;;;;3.50;56.84;100326.91;3573249;40;20065;-49
2021/04/28 01:05:34;;;;;;;6.75;4.93;;;;;;;3.51;56.71;100318.50;3572942;40;20053;-53
2021/04/28 01:08:02;;;;;;;9.98;5.32;;;;;;;3.35;57.97;100318.56;3568695;40;20076;-51
2021/04/28 01:10:31;;;;;;;7.18;5.03;;;;;;;3.66;57.20;100319.25;3573080;40;20084;-48
2021/04/28 01:12:58;;;;;;;7.28;5.07;;;;;;;3.51;57.58;100319.41;3572680;40;20490;-50
2021/04/28 01:15:31;;;;;;;7.38;4.78;;;;;;;3.68;57.39;100310.03;3572969;40;20063;-50
2021/04/28 01:17:59;;;;;;;8.18;5.13;;;;;;;3.22;58.15;100310.38;3572893;40;20044;-56
2021/04/28 01:20:28;;;;;;;8.10;5.57;;;;;;;3.42;57.98;100307.94;3573132;40;20045;-49
2021/04/28 01:22:55;;;;;;;8.70;5.15;;;;;;;3.51;57.69;100316.88;3573228;40;20442;-54
2021/04/28 01:25:24;;;;;;;11.35;5.43;;;;;;;3.21;58.60;100313.72;3573818;40;20156;-52
2021/04/28 01:27:55;;;;;;;10.13;5.70;;;;;;;3.00;59.07;100305.91;3573976;40;20331;-53
2021/04/28 01:30:24;;;;;;;8.20;5.63;;;;;;;2.95;58.86;100301.44;3574215;40;20061;-50
2021/04/28 01:32:53;;;;;;;8.57;5.43;;;;;;;2.99;59.23;100298.25;3574077;40;20049;-49
2021/04/28 01:35:21;;;;;;;7.97;5.90;;;;;;;2.81;59.61;100300.75;3573931;40;20634;-51
2021/04/28 01:37:48;;;;;;;6.75;5.40;;;;;;;2.94;59.52;100294.66;3573529;40;20115;-49
2021/04/28 01:40:17;;;;;;;5.82;4.78;;;;;;;2.76;59.92;100299.66;3574081;40;20412;-50
2021/04/28 01:42:47;;;;;;;8.35;5.35;;;;;;;2.66;60.17;100294.91;3573770;40;20084;-50
2021/04/28 01:45:15;;;;;;;10.05;6.30;;;;;;;2.63;60.38;100292.22;3573864;40;20423;-48
2021/04/28 01:47:42;;;;;;;13.60;5.43;;;;;;;2.47;61.03;100293.97;3573673;40;20312;-53
2021/04/28 01:50:11;;;;;;;10.75;5.72;;;;;;;2.75;60.27;100286.13;3574186;40;20085;-51
2021/04/28 01:52:40;;;;;;;8.38;5.60;;;;;;;2.55;61.21;100291.84;3573975;40;20041;-53
2021/04/28 01:55:07;;;;;;;9.50;6.30;;;;;;;2.54;61.29;100291.00;3574171;40;20403;-51
2021/04/28 01:57:34;;;;;;;8.40;5.68;;;;;;;2.59;61.05;100291.22;3573726;40;20053;-53
2021/04/28 02:00:04;;;;;;;10.48;6.20;;;;;;;2.56;61.49;100291.06;3570071;40;20116;-50
2021/04/28 02:02:31;;;;;;;9.07;5.82;;;;;;;2.57;61.64;100287.75;3573909;40;20446;-53
2021/04/28 02:05:01;;;;;;;8.35;5.63;;;;;;;2.62;61.41;100282.91;3573744;40;20100;-49
2021/04/28 02:07:28;;;;;;;8.07;6.10;;;;;;;2.66;61.89;100270.50;3574086;40;20350;-54
2021/04/28 02:09:55;;;;;;;11.73;6.63;;;;;;;2.68;61.63;100273.09;3573797;40;20060;-53
2021/04/28 02:12:21;;;;;;;7.90;5.80;;;;;;;2.55;61.24;100272.50;3573749;40;20071;-48
2021/04/28 02:14:50;;;;;;;9.90;5.90;;;;;;;2.65;60.17;100271.31;3574247;40;20097;-52
2021/04/28 02:17:19;;;;;;;12.63;6.47;;;;;;;2.57;59.86;100264.13;3574695;40;20328;-50
2021/04/28 02:19:46;;;;;;;12.50;6.55;;;;;;;2.96;57.38;100266.13;3573963;40;20162;-52
2021/04/28 02:22:13;;;;;;;10.65;6.20;;;;;;;2.74;58.58;100270.91;3573976;40;20096;-50
2021/04/28 02:24:40;;;;;;;10.93;6.57;;;;;;;2.52;59.07;100269.81;3574178;40;20127;-51
2021/04/28 02:27:07;;;;;;;11.77;6.55;;;;;;;2.53;58.75;100261.44;3574139;40;20081;-49
2021/04/28 02:29:34;;;;;;;11.38;6.60;;;;;;;2.47;59.29;100253.56;3573950;40;20430;-52
2021/04/28 02:32:02;;;;;;;12.50;6.80;;;;;;;2.76;57.94;100254.13;3570115;40;20789;-51
2021/04/28 02:34:29;;;;;;;9.77;6.40;;;;;;;2.54;58.20;100249.66;3573609;40;20086;-51
2021/04/28 02:36:58;;;;;;;10.32;6.47;;;;;;;2.40;59.04;100250.63;3573533;40;20083;-53
2021/04/28 02:39:48;;;;;;;13.68;6.95;;;;;;;2.40;59.79;100243.91;3573494;40;20096;-54
2021/04/28 02:42:15;;;;;;;11.77;6.03;;;;;;;2.48;58.95;100244.31;3570695;40;20056;-50
2021/04/28 02:44:45;;;;;;;15.27;7.15;;;;;;;2.43;59.37;100236.50;3573538;40;20072;-53
2021/04/28 02:47:13;;;;;;;10.07;6.72;;;;;;;2.51;59.43;100240.28;3573231;40;20056;-53
2021/04/28 02:49:43;;;;;;;11.85;7.03;;;;;;;2.52;59.45;100242.00;3573451;40;20152;-54
2021/04/28 02:52:10;;;;;;;10.93;6.47;;;;;;;2.35;60.09;100242.81;3574867;40;20073;-53
2021/04/28 02:54:38;;;;;;;11.23;6.40;;;;;;;2.28;60.29;100234.06;3573725;40;20081;-50
2021/04/28 02:57:05;;;;;;;10.70;7.45;;;;;;;2.17;60.89;100235.19;3573267;40;20072;-51
2021/04/28 02:59:32;;;;;;;12.30;6.85;;;;;;;2.22;60.42;100235.41;3573396;40;20092;-53
2021/04/28 03:01:59;;;;;;;10.75;7.13;;;;;;;2.15;61.25;100235.88;3573413;40;20056;-49
2021/04/28 03:04:27;;;;;;;12.85;6.60;;;;;;;2.13;61.50;100235.81;3573313;40;20326;-49
2021/04/28 03:06:53;;;;;;;10.95;7.18;;;;;;;2.19;61.65;100235.25;3573462;40;20141;-50
2021/04/28 03:09:21;;;;;;;11.45;6.93;;;;;;;2.06;62.02;100231.22;3573180;40;20060;-53
2021/04/28 03:11:47;;;;;;;13.63;7.38;;;;;;;2.19;61.56;100233.59;3573765;40;20733;-51
2021/04/28 03:14:14;;;;;;;11.63;7.65;;;;;;;2.09;63.13;100228.00;3573547;40;20068;-51
2021/04/28 03:16:41;;;;;;;12.75;7.43;;;;;;;2.08;63.08;100239.75;3573834;40;20091;-52
2021/04/28 03:19:08;;;;;;;11.93;7.03;;;;;;;1.94;63.69;100234.00;3573909;40;20049;-53
2021/04/28 03:21:40;;;;;;;13.30;7.28;;;;;;;1.89;64.21;100229.47;3574792;40;20064;-53
2021/04/28 03:24:08;;;;;;;12.77;6.93;;;;;;;1.92;64.17;100233.03;3570642;40;20454;-53
2021/04/28 03:26:35;;;;;;;12.68;7.93;;;;;;;1.89;64.39;100227.78;3573867;40;20057;-52
2021/04/28 03:29:02;;;;;;;17.45;8.07;;;;;;;1.95;64.21;100224.75;3570034;40;20085;-54
2021/04/28 03:31:31;;;;;;;11.40;7.32;;;;;;;1.92;64.59;100230.50;3573607;40;20089;-50
2021/04/28 03:34:02;;;;;;;9.18;7.15;;;;;;;2.02;64.09;100231.84;3569698;40;20057;-52
2021/04/28 03:36:29;;;;;;;14.98;8.13;;;;;;;1.92;64.47;100233.03;3573162;40;20061;-52
2021/04/28 03:38:55;;;;;;;11.30;7.20;;;;;;;1.95;64.37;100228.13;3573007;40;20100;-50
2021/04/28 03:41:24;;;;;;;12.18;7.68;;;;;;;1.89;64.80;100227.78;3574054;40;20457;-52
2021/04/28 03:43:51;;;;;;;12.57;7.75;;;;;;;1.75;66.08;100231.25;3573289;40;20045;-49
2021/04/28 03:46:17;;;;;;;12.80;7.80;;;;;;;1.79;66.17;100233.16;3572846;40;20061;-51
2021/04/28 03:48:44;;;;;;;12.90;8.00;;;;;;;1.70;65.89;100227.63;3572979;40;20057;-52
2021/04/28 03:51:11;;;;;;;13.10;7.95;;;;;;;1.70;65.89;100227.63;3573199;40;20091;-52
2021/04/28 03:53:37;;;;;;;15.73;8.20;;;;;;;1.75;66.19;100219.50;3572903;40;20067;-52
2021/04/28 03:56:04;;;;;;;13.25;7.90;;;;;;;1.79;65.20;100225.59;3573245;40;20454;-50
2021/04/28 03:58:31;;;;;;;12.02;8.30;;;;;;;2.00;65.14;100226.72;3573078;40;20041;-50
2021/04/28 04:00:58;;;;;;;15.25;7.65;;;;;;;1.89;64.04;100226.94;3572777;40;20049;-56
2021/04/28 04:03:25;;;;;;;11.82;8.13;;;;;;;1.76;64.00;100228.84;3573067;40;20084;-52
2021/04/28 04:05:52;;;;;;;10.35;7.53;;;;;;;1.76;64.15;100223.78;3572813;40;20053;-50
2021/04/28 04:08:18;;;;;;;15.50;7.90;;;;;;;1.79;63.87;100223.91;3573162;40;20824;-51
2021/04/28 04:10:45;;;;;;;15.52;7.50;;;;;;;1.72;63.92;100226.06;3572729;40;20348;-54
2021/04/28 04:13:11;;;;;;;12.45;7.50;;;;;;;1.79;63.08;100233.16;3572958;40;20075;-50
2021/04/28 04:15:38;;;;;;;15.20;8.95;;;;;;;1.81;63.68;100220.63;3572730;40;20102;-53
2021/04/28 04:18:04;;;;;;;14.85;8.85;;;;;;;1.78;63.62;100226.38;3573109;40;20101;-53
2021/04/28 04:20:32;;;;;;;11.98;7.63;;;;;;;1.77;63.43;100228.03;3580647;40;20587;-56
2021/04/28 04:23:00;;;;;;;13.27;7.55;;;;;;;1.76;63.61;100226.31;3580320;40;20091;-53
2021/04/28 04:25:27;;;;;;;13.45;7.82;;;;;;;1.76;63.56;100227.97;3578601;40;20053;-55
2021/04/28 04:27:55;;;;;;;11.70;7.55;;;;;;;1.68;63.84;100232.59;3573784;40;20057;-55
2021/04/28 04:30:22;;;;;;;15.07;7.68;;;;;;;1.85;62.92;100237.66;3573321;40;20075;-54
2021/04/28 04:32:48;;;;;;;13.20;8.10;;;;;;;1.75;63.30;100237.16;3573092;40;20439;-55
2021/04/28 04:35:20;;;;;;;12.70;8.15;;;;;;;1.88;62.91;100232.78;3572779;40;20080;-50
2021/04/28 04:37:46;;;;;;;14.45;8.05;;;;;;;1.89;63.88;100234.50;3572382;40;20064;-54
2021/04/28 04:40:14;;;;;;;12.52;7.70;;;;;;;1.78;64.05;100236.47;3572143;40;20048;-53
2021/04/28 04:42:41;;;;;;;14.18;8.65;;;;;;;1.83;64.52;100237.59;3572424;40;20085;-53
2021/04/28 04:45:08;;;;;;;12.50;8.32;;;;;;;1.89;64.68;100242.94;3572657;40;20858;-55
2021/04/28 04:47:34;;;;;;;15.73;8.35;;;;;;;1.96;64.84;100239.97;3572421;40;20437;-49
2021/04/28 04:50:01;;;;;;;16.60;8.50;;;;;;;2.08;64.37;100239.75;3569446;40;20098;-50
2021/04/28 04:52:27;;;;;;;13.13;9.30;;;;;;;2.19;63.78;100237.78;3572503;40;20061;-52
2021/04/28 04:54:54;;;;;;;16.95;9.00;;;;;;;2.38;62.62;100232.88;3572519;40;20059;-54
2021/04/28 04:57:20;;;;;;;12.82;8.45;;;;;;;2.37;64.05;100235.31;3572912;40;20079;-51
2021/04/28 04:59:47;;;;;;;16.65;9.20;;;;;;;2.38;63.82;100239.59;3574218;40;20064;-52
2021/04/28 05:02:13;;;;;;;13.77;8.80;;;;;;;2.70;62.52;100234.50;3572961;40;20049;-54
2021/04/28 05:04:40;;;;;;;17.45;9.45;;;;;;;2.64;62.59;100240.91;3572766;40;20091;-54
2021/04/28 05:07:06;;;;;;;17.10;8.75;;;;;;;2.79;62.67;100239.13;3573037;40;20048;-54
2021/04/28 05:09:33;;;;;;;14.88;9.00;;;;;;;2.78;62.37;100247.50;3572445;40;20081;-50
2021/04/28 05:11:59;;;;;;;14.70;8.55;;;;;;;2.89;61.93;100248.03;3572847;40;20450;-56
2021/04/28 05:14:27;;;;;;;16.10;9.27;;;;;;;3.00;60.95;100239.28;3572906;40;20082;-51
2021/04/28 05:16:53;;;;;;;14.25;9.10;;;;;;;3.19;60.87;100239.41;3573184;40;20061;-53
2021/04/28 05:19:20;;;;;;;16.33;9.20;;;;;;;3.28;60.74;100237.31;3574010;40;20104;-55
2021/04/28 05:21:47;;;;;;;17.00;9.32;;;;;;;3.38;60.37;100235.22;3573221;40;20057;-54
2021/04/28 05:24:13;;;;;;;12.07;8.60;;;;;;;3.44;59.68;100236.38;3573939;40;20065;-55
2021/04/28 05:26:40;;;;;;;20.38;9.45;;;;;;;3.62;58.27;100238.88;3573488;40;20101;-52
2021/04/28 05:29:06;;;;;;;20.75;9.40;;;;;;;3.75;57.95;100235.25;3573559;40;20104;-51
2021/04/28 05:31:33;;;;;;;17.55;9.07;;;;;;;3.82;58.31;100234.72;3573633;40;20068;-53
2021/04/28 05:33:59;;;;;;;16.60;10.63;;;;;;;3.88;57.74;100244.25;3573105;40;20049;-53
2021/04/28 05:36:26;;;;;;;16.48;9.48;;;;;;;3.85;57.38;100246.66;3573494;40;20049;-51
2021/04/28 05:38:59;;;;;;;16.42;9.75;;;;;;;4.22;55.59;100246.63;3572512;40;20081;-51
2021/04/28 05:41:39;;;;;;;18.85;9.85;;;;;;;4.07;56.94;100241.78;3570949;40;20059;-52
2021/04/28 05:44:07;;;;;;;16.75;9.57;;;;;;;4.60;55.53;100244.06;3573624;40;20075;-53
2021/04/28 05:46:33;;;;;;;14.75;10.02;;;;;;;4.20;56.45;100248.22;3574533;40;20049;-57
2021/04/28 05:49:00;;;;;;;18.38;9.43;;;;;;;4.27;55.42;100240.09;3573881;40;20037;-55
2021/04/28 05:51:26;;;;;;;16.52;10.00;;;;;;;4.70;54.98;100247.84;3574287;40;20051;-56
2021/04/28 05:53:53;;;;;;;15.75;9.95;;;;;;;4.73;54.61;100245.47;3572756;40;20092;-52
2021/04/28 05:56:20;;;;;;;17.08;10.07;;;;;;;5.28;53.62;100237.56;3573670;40;20088;-55
2021/04/28 05:58:46;;;;;;;20.73;10.30;;;;;;;4.97;53.86;100232.03;3575255;40;20110;-57
2021/04/28 06:01:13;;;;;;;19.05;9.93;;;;;;;5.20;53.45;100235.50;3574997;40;20049;-56
2021/04/28 06:03:40;;;;;;;18.50;10.20;;;;;;;5.26;52.95;100235.75;3572818;40;20064;-55
2021/04/28 06:06:08;;;;;;;16.55;9.90;;;;;;;5.26;53.02;100236.59;3573148;40;20040;-52
2021/04/28 06:08:35;;;;;;;16.10;9.93;;;;;;;5.61;52.51;100239.66;3570958;40;20428;-48
2021/04/28 06:11:02;;;;;;;17.67;10.85;;;;;;;5.75;51.71;100230.03;3572538;40;20130;-53
2021/04/28 06:13:29;;;;;;;20.83;10.88;;;;;;;5.77;51.92;100233.47;3573216;40;20057;-51
2021/04/28 06:15:55;;;;;;;16.60;10.18;;;;;;;5.97;51.55;100234.28;3572788;40;20049;-51
2021/04/28 06:18:22;;;;;;;16.40;10.40;;;;;;;5.92;51.72;100236.63;3572566;40;20411;-52
2021/04/28 06:20:48;;;;;;;17.58;10.52;;;;;;;6.13;50.47;100226.38;3572197;40;20073;-52
2021/04/28 06:23:18;;;;;;;15.48;9.98;;;;;;;6.00;50.26;100230.13;3571605;40;20069;-52
2021/04/28 06:25:46;;;;;;;16.92;10.45;;;;;;;5.85;51.22;100221.94;3573021;40;20130;-51
2021/04/28 06:28:12;;;;;;;20.67;10.43;;;;;;;5.79;51.68;100221.72;3572966;40;20108;-51
2021/04/28 06:30:39;;;;;;;15.45;10.00;;;;;;;6.01;51.68;100223.38;3572737;40;20049;-53
2021/04/28 06:33:05;;;;;;;22.48;11.57;;;;;;;6.06;51.16;100221.91;3573045;40;20389;-51
2021/04/28 06:35:33;;;;;;;18.30;10.77;;;;;;;6.47;50.84;100222.47;3570634;40;20056;-51
2021/04/28 06:38:00;;;;;;;18.13;10.50;;;;;;;6.75;50.91;100226.81;3572710;40;20415;-52
2021/04/28 06:40:27;;;;;;;19.40;11.13;;;;;;;7.03;48.96;100224.38;3572714;40;20438;-53
2021/04/28 06:42:53;;;;;;;19.45;10.65;;;;;;;6.95;49.78;100225.81;3571920;40;20408;-50
2021/04/28 06:45:20;;;;;;;18.88;10.75;;;;;;;7.30;48.36;100229.50;3572926;40;20441;-53
2021/04/28 06:47:52;;;;;;;18.60;10.30;;;;;;;7.40;48.37;100220.44;3572493;40;20041;-54
2021/04/28 06:50:19;;;;;;;21.40;11.35;;;;;;;7.54;48.17;100224.28;3572409;40;20373;-52
2021/04/28 06:52:46;;;;;;;20.40;10.13;;;;;;;7.51;47.19;100221.63;3572479;40;20056;-51
2021/04/28 06:55:13;;;;;;;18.15;10.50;;;;;;;7.49;47.88;100213.09;3572494;40;20077;-53
2021/04/28 06:57:55;;;;;;;17.45;10.50;;;;;;;7.70;48.07;100219.63;3572109;40;20045;-53
2021/04/28 07:00:26;;;;;;;18.85;11.18;;;;;;;7.28;48.92;100218.38;3572253;40;20704;-51
2021/04/28 07:02:56;;;;;;;24.13;11.00;;;;;;;8.00;47.09;100217.97;3572323;40;21195;-54
2021/04/28 07:05:24;;;;;;;18.45;11.35;;;;;;;8.24;46.33;100215.25;3572401;40;20076;-53
2021/04/28 07:07:53;;;;;;;18.02;10.18;;;;;;;8.15;47.58;100215.84;3572642;40;20057;-53
2021/04/28 07:10:20;;;;;;;15.70;10.32;;;;;;;8.17;46.83;100216.75;3572507;40;20040;-53
2021/04/28 07:12:47;;;;;;;17.23;10.63;;;;;;;8.52;47.84;100214.31;3572306;40;20327;-50
2021/04/28 07:15:15;;;;;;;18.75;11.25;;;;;;;9.37;45.95;100210.44;3571126;40;20104;-48
2021/04/28 07:17:50;;;;;;;15.57;10.40;;;;;;;10.08;43.99;100205.13;3571766;40;20055;-53
2021/04/28 07:20:18;;;;;;;17.58;10.52;;;;;;;9.92;43.87;100196.28;3572278;40;20064;-52
2021/04/28 07:22:45;;;;;;;16.88;10.48;;;;;;;10.66;42.50;100197.69;3572425;40;20130;-54
2021/04/28 07:25:12;;;;;;;16.88;10.57;;;;;;;10.25;42.90;100192.69;3572740;40;20045;-53
2021/04/28 07:27:41;;;;;;;20.08;10.55;;;;;;;10.07;43.81;100195.72;3570548;40;20052;-51
2021/04/28 07:30:09;;;;;;;17.00;10.80;;;;;;;9.78;44.16;100190.03;3572860;40;20625;-54
2021/04/28 07:32:37;;;;;;;16.85;10.52;;;;;;;9.93;43.99;100187.75;3574639;40;20045;-54
2021/04/28 07:35:04;;;;;;;16.52;10.73;;;;;;;10.51;43.60;100193.16;3578345;40;20060;-56
2021/04/28 07:37:31;;;;;;;18.42;11.27;;;;;;;10.54;42.62;100190.69;3572626;40;20138;-52
2021/04/28 07:39:58;;;;;;;16.52;10.55;;;;;;;10.74;42.46;100195.28;3572969;40;20049;-57
2021/04/28 07:42:25;;;;;;;19.98;9.93;;;;;;;10.48;43.99;100188.00;3570976;40;20053;-51
2021/04/28 07:44:51;;;;;;;15.90;10.85;;;;;;;10.30;43.93;100192.78;3572527;40;20091;-53
2021/04/28 07:47:18;;;;;;;18.05;10.43;;;;;;;10.73;43.63;100191.00;3573201;40;20079;-53
2021/04/28 07:50:05;;;;;;;19.60;10.53;;;;;;;10.69;41.94;100190.94;3570273;40;20049;-55
2021/04/28 07:52:32;;;;;;;18.30;11.10;;;;;;;10.86;41.71;100188.66;3572979;40;20052;-53
2021/04/28 07:54:58;;;;;;;18.33;10.18;;;;;;;11.08;42.59;100194.13;3572834;40;20072;-54
2021/04/28 07:57:25;;;;;;;14.25;10.18;;;;;;;11.04;41.74;100195.75;3572659;40;20053;-54
2021/04/28 07:59:52;;;;;;;19.88;10.48;;;;;;;11.51;40.33;100197.28;3572642;40;20085;-52
2021/04/28 08:02:20;;;;;;;18.33;10.13;;;;;;;11.12;42.21;100193.31;3573157;40;20052;-52
2021/04/28 08:04:47;;;;;;;16.70;10.43;;;;;;;11.41;42.16;100186.91;3572731;40;20134;-56
2021/04/28 08:07:14;;;;;;;15.80;9.90;;;;;;;11.35;40.58;100184.28;3573017;40;20081;-55
2021/04/28 08:09:41;;;;;;;19.65;11.38;;;;;;;11.24;40.19;100178.16;3572691;40;20440;-54
2021/04/28 08:12:08;;;;;;;23.65;10.57;;;;;;;11.44;40.52;100180.97;3572146;40;20433;-51
2021/04/28 08:14:35;;;;;;;19.20;11.43;;;;;;;11.30;40.57;100174.81;3571185;40;20056;-49
2021/04/28 08:17:02;;;;;;;18.17;10.55;;;;;;;11.84;40.90;100174.72;3573055;40;20056;-54
2021/04/28 08:19:29;;;;;;;16.55;10.27;;;;;;;11.59;40.05;100170.91;3570053;40;20060;-53
2021/04/28 08:21:56;;;;;;;18.95;10.98;;;;;;;12.31;38.57;100164.09;3572105;40;20048;-53
2021/04/28 08:24:24;;;;;;;20.00;11.77;;;;;;;11.82;38.34;100163.56;3572342;40;20069;-54
2021/04/28 08:26:51;;;;;;;15.98;10.75;;;;;;;12.57;38.58;100168.63;3572502;40;20065;-53
2021/04/28 08:29:22;;;;;;;19.85;11.65;;;;;;;12.62;37.48;100159.28;3570170;40;20149;-50
2021/04/28 08:31:48;;;;;;;19.60;11.13;;;;;;;12.98;36.80;100162.09;3572216;40;20048;-54
2021/04/28 08:34:15;;;;;;;19.70;10.73;;;;;;;13.31;36.84;100157.22;3572470;40;20129;-55
2021/04/28 08:36:42;;;;;;;16.95;10.15;;;;;;;14.32;33.97;100160.19;3572101;40;20697;-54
2021/04/28 08:39:09;;;;;;;17.52;10.63;;;;;;;14.62;33.46;100162.84;3578303;40;20048;-49
2021/04/28 08:41:36;;;;;;;15.98;10.68;;;;;;;15.33;31.85;100168.78;3578597;40;20084;-55
2021/04/28 08:44:07;;;;;;;17.27;11.35;;;;;;;16.36;31.14;100160.63;3574456;40;20033;-50
2021/04/28 08:46:37;;;;;;;17.20;10.77;;;;;;;15.62;31.20;100155.84;3573343;40;20063;-52
2021/04/28 08:49:05;;;;;;;15.60;10.85;;;;;;;15.58;32.15;100159.28;3570839;40;20065;-53
2021/04/28 08:51:32;;;;;;;15.73;10.73;;;;;;;15.17;32.39;100162.81;3572530;40;20060;-51
2021/04/28 08:53:59;;;;;;;14.38;10.40;;;;;;;15.02;32.13;100155.09;3571644;40;20045;-56
2021/04/28 08:56:25;;;;;;;18.05;10.45;;;;;;;14.67;32.40;100144.81;3571903;40;20053;-53
2021/04/28 08:58:54;;;;;;;17.55;10.68;;;;;;;15.05;31.92;100147.34;3572196;40;20072;-50
2021/04/28 09:01:33;;;;;;;15.68;10.10;;;;;;;14.73;32.11;100155.09;3572792;40;20064;-51
2021/04/28 09:04:01;;;;;;;18.63;10.63;;;;;;;14.87;31.79;100144.78;3572800;40;20060;-51
2021/04/28 09:06:33;;;;;;;16.17;10.13;;;;;;;14.54;32.39;100145.66;3578963;40;20056;-57
2021/04/28 09:09:14;;;;;;;13.95;9.93;;;;;;;14.68;31.66;100143.94;3572846;40;20384;-55
2021/04/28 09:11:46;;;;;;;15.80;9.45;;;;;;;14.58;32.36;100134.50;3572500;40;20085;-51
2021/04/28 09:14:18;;;;;;;16.55;10.15;;;;;;;15.16;31.83;100137.00;3573129;40;20065;-51
2021/04/28 09:17:04;;;;;;;17.85;10.82;;;;;;;15.27;32.00;100133.56;3568506;40;20304;-51
2021/04/28 09:19:51;;;;;;;13.95;9.82;;;;;;;15.70;31.58;100133.44;3571871;40;20033;-54
2021/04/28 09:22:20;;;;;;;15.13;10.65;;;;;;;15.73;29.71;100125.69;3569164;40;20071;-55
2021/04/28 09:24:46;;;;;;;15.27;9.63;;;;;;;15.90;29.83;100132.47;3571769;40;20120;-49
2021/04/28 09:27:51;;;;;;;13.70;9.40;;;;;;;15.81;30.04;100125.66;3572081;40;20051;-52
2021/04/28 09:30:26;;;;;;;12.38;9.23;;;;;;;15.60;29.75;100116.25;3539924;40;20118;-49
2021/04/28 09:33:02;;;;;;;15.77;10.63;;;;;;;15.84;30.64;100115.31;3540290;40;20086;-51
2021/04/28 09:35:29;;;;;;;;;;;;;;;15.73;31.15;100117.09;3557659;40;20389;-55
2021/04/28 09:37:57;;;;;;;15.25;9.90;;;;;;;15.88;30.92;100113.56;3571596;40;19936;-52
2021/04/28 09:40:43;;;;;;;13.80;10.35;;;;;;;17.01;29.94;100117.94;3570976;40;20053;-52
2021/04/28 09:43:11;;;;;;;13.70;9.23;;;;;;;17.60;28.14;100107.78;3571829;40;20085;-51
2021/04/28 09:45:43;;;;;;;16.00;10.52;;;;;;;17.60;29.60;100110.34;3573871;40;20053;-51
2021/04/28 09:48:25;;;;;;;15.10;10.80;;;;;;;18.02;28.62;100119.31;3573272;40;20043;-51
2021/04/28 09:51:09;;;;;;;20.67;12.07;;;;;;;18.89;26.16;100117.13;3574198;40;20037;-52
2021/04/28 09:53:36;;;;;;;17.58;10.75;;;;;;;19.42;26.39;100115.28;3573675;40;20063;-52
2021/04/28 09:56:14;;;;;;;13.65;10.57;;;;;;;19.38;26.42;100111.88;3570044;40;20049;-51
2021/04/28 09:58:52;;;;;;;14.13;10.82;;;;;;;22.58;22.01;100112.22;3572798;40;20318;-54
2021/04/28 10:01:34;;;;;;;13.15;10.50;;;;;;;20.92;23.54;100102.34;3572497;40;20044;-53
2021/04/28 10:04:02;;;;;;;15.82;10.90;;;;;;;25.38;18.93;100116.31;3571980;40;20049;-51
2021/04/28 10:06:49;;;;;;;17.05;12.13;;;;;;;26.04;17.58;100116.75;3572058;40;20060;-51
2021/04/28 10:09:35;;;;;;;13.35;10.82;;;;;;;25.05;19.31;100110.72;3570544;40;20067;-54
2021/04/28 10:12:08;;;;;;;14.88;11.48;;;;;;;27.27;17.56;100122.06;3569962;40;20102;-53
2021/04/28 10:14:37;;;;;;;16.70;12.35;;;;;;;24.43;19.08;100109.00;3573123;40;20068;-53
2021/04/28 10:17:05;;;;;;;18.58;12.60;;;;;;;26.54;17.98;100108.25;3573202;40;20103;-52
2021/04/28 10:19:34;;;;;;;17.92;13.23;;;;;;;26.94;17.57;100118.50;3573358;40;20052;-53
2021/04/28 10:22:10;;;;;;;15.88;12.52;;;;;;;27.70;16.98;100114.47;3573564;40;20049;-52
2021/04/28 10:24:39;;;;;;;17.08;12.05;;;;;;;27.60;17.38;100114.13;3619821;22;20036;-50
2021/04/28 10:27:11;;;;;;;16.02;11.85;;;;;;;27.72;17.94;100104.75;3580884;40;20115;-53
2021/04/28 10:29:39;;;;;;;16.48;13.10;;;;;;;27.08;17.85;100105.50;3583136;40;20045;-50
2021/04/28 10:32:11;;;;;;;17.77;12.82;;;;;;;27.46;17.34;100094.78;3574181;40;20233;-55
2021/04/28 10:34:49;;;;;;;17.15;13.02;;;;;;;28.01;17.70;100108.41;3573715;40;20068;-52
2021/04/28 10:37:19;;;;;;;16.83;13.32;;;;;;;26.08;19.73;100091.22;3563596;40;20074;-56
2021/04/28 10:39:50;;;;;;;18.45;13.45;;;;;;;26.15;18.29;100079.50;3563972;40;20420;-50
2021/04/28 10:42:25;;;;;;;19.27;14.23;;;;;;;25.37;20.28;100083.13;3565642;40;20059;-53
2021/04/28 10:44:52;;;;;;;19.98;14.00;;;;;;;27.00;18.48;100082.25;3565738;40;20073;-50
2021/04/28 10:47:25;;;;;;;17.75;14.60;;;;;;;28.25;17.48;100086.91;3569549;40;20041;-53
2021/04/28 10:49:58;;;;;;;17.50;14.00;;;;;;;28.50;16.47;100087.19;3563903;40;20153;-51
2021/04/28 10:52:41;;;;;;;18.35;14.15;;;;;;;28.48;17.42;100086.44;3567144;40;20511;-53
2021/04/28 10:55:44;;;;;;;16.20;13.07;;;;;;;28.37;16.96;100088.84;3563399;40;20129;-53
2021/04/28 10:58:30;;;;;;;17.33;13.25;;;;;;;25.75;19.63;100080.53;3565443;40;20057;-57
2021/04/28 11:01:04;;;;;;;17.40;12.52;;;;;;;27.29;18.15;100077.25;3566911;40;20076;-55
2021/04/28 11:03:33;;;;;;;17.55;13.07;;;;;;;29.01;16.51;100082.41;3563481;40;20430;-51
2021/04/28 11:06:23;;;;;;;15.63;12.77;;;;;;;28.66;15.78;100085.38;3563843;40;20045;-53
2021/04/28 11:08:55;;;;;;;14.90;12.43;;;;;;;30.34;15.07;100096.94;3564167;40;20049;-50
2021/04/28 11:11:35;;;;;;;17.40;13.65;;;;;;;26.98;17.26;100073.56;3563607;40;20049;-49
2021/04/28 11:14:15;;;;;;;17.73;12.77;;;;;;;25.11;19.68;100069.44;3563476;40;20331;-50
2021/04/28 11:17:21;;;;;;;17.52;12.77;;;;;;;30.10;15.62;100078.25;3563361;40;20053;-55
2021/04/28 11:19:57;;;;;;;17.70;14.05;;;;;;;26.08;18.60;100057.97;3563973;40;20049;-51
2021/04/28 11:22:29;;;;;;;17.73;12.77;;;;;;;28.38;16.96;100070.34;3564325;40;20894;-52
2021/04/28 11:25:07;;;;;;;14.20;11.98;;;;;;;28.13;17.07;100067.38;3563990;40;20065;-51
2021/04/28 11:27:42;;;;;;;17.67;13.77;;;;;;;26.17;18.83;100053.19;3564965;40;20061;-51
2021/04/28 11:30:31;;;;;;;18.13;13.60;;;;;;;26.13;18.74;100061.22;3563564;40;20081;-50